Time;durP1;ratioP1;P1;durP2;ratioP2;P2;SDS_P1;SDS_P2;PMS_P1;PMS_P2;Temp;Humidity;BMP_temperature;BMP_pressure;BME280_temperature;BME280_humidity;BME280_pressure;Samples;Min_cycle;Max_cycle;Signal;HPM_P1;HPM_P2
2022/05/26 00:01:16;;;;;;;4.55;1.63;;;;;;;;;;5071130;28;20020;-63
2022/05/26 00:03:43;;;;;;;7.15;1.88;;;;;;;;;;5065665;28;20039;-62
2022/05/26 00:06:11;;;;;;;5.57;2.00;;;;;;;;;;5071211;28;20035;-63
2022/05/26 00:08:37;;;;;;;6.32;1.40;;;;;;;;;;5066522;28;20032;-63
2022/05/26 00:11:08;;;;;;;5.63;1.95;;;;;;;;;;5053735;28;20025;-63
2022/05/26 00:13:34;;;;;;;;;;;;;;;;;;5055802;28;20098;-63
2022/05/26 00:16:00;;;;;;;6.13;2.00;;;;;;;;;;5067948;28;19948;-63
2022/05/26 00:18:26;;;;;;;5.88;1.70;;;;;;;;;;5062786;28;20242;-63
2022/05/26 00:20:52;;;;;;;6.07;1.58;;;;;;;;;;5051521;28;20029;-63
2022/05/26 00:23:18;;;;;;;4.40;1.30;;;;;;;;;;5057340;28;20030;-63
2022/05/26 00:25:44;;;;;;;5.13;1.85;;;;;;;;;;5062763;28;20059;-63
2022/05/26 00:28:10;;;;;;;3.92;1.65;;;;;;;;;;5069353;28;20189;-63
2022/05/26 00:30:37;;;;;;;5.72;1.67;;;;;;;;;;5059403;28;20028;-63
2022/05/26 00:33:04;;;;;;;8.43;1.92;;;;;;;;;;5070473;28;20028;-63
2022/05/26 00:35:30;;;;;;;4.47;1.50;;;;;;;;;;5058524;28;20048;-63
2022/05/26 00:37:56;;;;;;;4.60;2.38;;;;;;;;;;5070555;28;20044;-63
2022/05/26 00:40:22;;;;;;;6.68;1.63;;;;;;;;;;5063000;28;20558;-63
2022/05/26 00:42:50;;;;;;;7.32;2.20;;;;;;;;;;5050471;28;20104;-63
2022/05/26 00:45:17;;;;;;;5.85;2.03;;;;;;;;;;5055779;28;20578;-63
2022/05/26 00:47:45;;;;;;;5.03;1.40;;;;;;;;;;5068862;28;20046;-63
2022/05/26 00:50:23;;;;;;;4.50;1.50;;;;;;;;;;5067075;28;20033;-63
2022/05/26 00:52:49;;;;;;;4.85;1.73;;;;;;;;;;5050815;28;20067;-63
2022/05/26 00:55:42;;;;;;;3.72;1.40;;;;;;;;;;5061919;28;20020;-63
2022/05/26 00:58:11;;;;;;;5.30;1.90;;;;;;;;;;5047595;28;20104;-63
2022/05/26 01:00:38;;;;;;;5.07;1.30;;;;;;;;;;5063516;28;20111;-63
2022/05/26 01:03:11;;;;;;;5.47;1.50;;;;;;;;;;5068800;28;20021;-63
2022/05/26 01:05:39;;;;;;;5.85;1.67;;;;;;;;;;5068383;28;20032;-63
2022/05/26 01:08:08;;;;;;;14.55;2.20;;;;;;;;;;5070626;28;20043;-63
2022/05/26 01:10:34;;;;;;;4.40;1.90;;;;;;;;;;5060572;28;20668;-63
2022/05/26 01:13:00;;;;;;;4.03;1.65;;;;;;;;;;5067132;28;20020;-63
2022/05/26 01:15:32;;;;;;;6.53;2.03;;;;;;;;;;5068122;28;20044;-63
2022/05/26 01:18:08;;;;;;;7.68;1.88;;;;;;;;;;5070872;28;20486;-63
2022/05/26 01:20:38;;;;;;;6.78;2.05;;;;;;;;;;5056774;28;20226;-63
2022/05/26 01:23:29;;;;;;;5.65;1.95;;;;;;;;;;5055721;28;20063;-63
2022/05/26 01:26:14;;;;;;;5.53;1.95;;;;;;;;;;5058693;28;20021;-63
2022/05/26 01:28:49;;;;;;;6.15;1.73;;;;;;;;;;5056245;28;20118;-63
2022/05/26 01:31:34;;;;;;;5.50;1.98;;;;;;;;;;5065736;28;20021;-63
2022/05/26 01:34:15;;;;;;;5.60;1.88;;;;;;;;;;5050534;28;20029;-63
2022/05/26 01:36:53;;;;;;;5.90;1.92;;;;;;;;;;5061545;28;20119;-63
2022/05/26 01:39:25;;;;;;;5.15;1.95;;;;;;;;;;5051762;28;20100;-63
2022/05/26 01:42:11;;;;;;;9.25;2.63;;;;;;;;;;5058531;28;20079;-63
2022/05/26 01:44:40;;;;;;;6.13;1.90;;;;;;;;;;5062133;28;20032;-63
2022/05/26 01:47:13;;;;;;;6.78;1.75;;;;;;;;;;5058377;28;20060;-63
2022/05/26 01:49:48;;;;;;;4.38;1.88;;;;;;;;;;5049850;28;20040;-63
2022/05/26 01:52:16;;;;;;;3.67;1.33;;;;;;;;;;5055151;28;20017;-63
2022/05/26 01:55:21;;;;;;;4.07;1.33;;;;;;;;;;5069476;28;20111;-63
2022/05/26 01:57:57;;;;;;;6.35;2.22;;;;;;;;;;4975136;28;20031;-63
2022/05/26 02:00:23;;;;;;;5.53;2.35;;;;;;;;;;4987570;28;20058;-63
2022/05/26 02:02:55;;;;;;;5.10;1.48;;;;;;;;;;5022457;28;20048;-63
2022/05/26 02:05:24;;;;;;;6.82;1.98;;;;;;;;;;5070076;28;20086;-63
2022/05/26 02:07:55;;;;;;;3.58;1.67;;;;;;;;;;5056823;28;20090;-63
2022/05/26 02:10:40;;;;;;;5.32;1.60;;;;;;;;;;5069756;28;20111;-63
2022/05/26 02:13:09;;;;;;;6.60;1.88;;;;;;;;;;5056026;28;20021;-63
2022/05/26 02:15:37;;;;;;;4.78;1.60;;;;;;;;;;5064001;28;20055;-63
2022/05/26 02:18:06;;;;;;;7.30;1.70;;;;;;;;;;5058285;28;20120;-63
2022/05/26 02:20:45;;;;;;;7.45;1.88;;;;;;;;;;5069350;28;20048;-63
2022/05/26 02:23:26;;;;;;;3.33;1.40;;;;;;;;;;5060689;28;20061;-63
2022/05/26 02:25:52;;;;;;;3.88;1.70;;;;;;;;;;5054390;28;21852;-63
2022/05/26 02:28:18;;;;;;;4.65;1.98;;;;;;;;;;5064133;28;20474;-63
2022/05/26 02:30:45;;;;;;;6.97;2.30;;;;;;;;;;5073691;28;20029;-63
2022/05/26 02:33:14;;;;;;;5.07;1.55;;;;;;;;;;5069110;28;20100;-63
2022/05/26 02:35:42;;;;;;;4.68;2.20;;;;;;;;;;5056272;28;20503;-63
2022/05/26 02:38:13;;;;;;;6.30;1.92;;;;;;;;;;5059180;28;20412;-63
2022/05/26 02:40:40;;;;;;;4.95;1.88;;;;;;;;;;5070235;28;20028;-63
2022/05/26 02:43:26;;;;;;;6.28;2.17;;;;;;;;;;5067196;28;20148;-63
2022/05/26 02:45:55;;;;;;;4.90;1.92;;;;;;;;;;5053465;28;20032;-63
2022/05/26 02:48:30;;;;;;;3.97;1.95;;;;;;;;;;5058669;28;20036;-63
2022/05/26 02:51:15;;;;;;;3.90;2.08;;;;;;;;;;5058642;28;20973;-63
2022/05/26 02:53:42;;;;;;;5.68;1.58;;;;;;;;;;5059709;28;20021;-63
2022/05/26 02:56:18;;;;;;;5.07;2.03;;;;;;;;;;5058531;28;20077;-63
2022/05/26 02:58:44;;;;;;;6.43;1.85;;;;;;;;;;5066771;28;20591;-63
2022/05/26 03:01:16;;;;;;;4.63;2.08;;;;;;;;;;5059060;28;20437;-63
2022/05/26 03:03:47;;;;;;;5.03;2.10;;;;;;;;;;5057618;28;20028;-63
2022/05/26 03:06:28;;;;;;;5.63;2.05;;;;;;;;;;5061000;28;20059;-63
2022/05/26 03:08:55;;;;;;;5.47;1.80;;;;;;;;;;5057496;28;20079;-63
2022/05/26 03:11:22;;;;;;;6.53;2.10;;;;;;;;;;5060638;28;20025;-63
2022/05/26 03:13:50;;;;;;;3.58;1.48;;;;;;;;;;5064380;28;20696;-63
2022/05/26 03:16:16;;;;;;;5.63;2.20;;;;;;;;;;5067764;28;20606;-63
2022/05/26 03:18:42;;;;;;;6.75;2.13;;;;;;;;;;5071014;28;20483;-63
2022/05/26 03:21:08;;;;;;;7.32;2.05;;;;;;;;;;5061058;28;20028;-63
2022/05/26 03:23:36;;;;;;;3.92;1.80;;;;;;;;;;5071056;28;20029;-63
2022/05/26 03:26:02;;;;;;;5.13;1.90;;;;;;;;;;5063430;28;20021;-63
2022/05/26 03:28:30;;;;;;;4.80;1.65;;;;;;;;;;5072488;28;20119;-63
2022/05/26 03:30:56;;;;;;;3.97;1.85;;;;;;;;;;5064468;28;20021;-63
2022/05/26 03:33:22;;;;;;;4.22;2.00;;;;;;;;;;5052608;28;20506;-63
2022/05/26 03:41:22;;;;;;;5.75;1.88;;;;;;;;;;5071240;28;20046;-63
2022/05/26 03:43:50;;;;;;;5.38;1.98;;;;;;;;;;5069892;28;20039;-63
2022/05/26 03:46:16;;;;;;;5.03;1.65;;;;;;;;;;5057720;28;20108;-63
2022/05/26 03:48:42;;;;;;;4.70;1.95;;;;;;;;;;5070789;28;20144;-63
2022/05/26 03:51:08;;;;;;;4.85;1.90;;;;;;;;;;5059000;28;20443;-63
2022/05/26 03:53:35;;;;;;;10.52;2.10;;;;;;;;;;5069752;28;20060;-63
2022/05/26 03:56:01;;;;;;;6.22;2.05;;;;;;;;;;5066835;28;20036;-63
2022/05/26 03:58:27;;;;;;;4.50;1.65;;;;;;;;;;5068109;28;20139;-63
2022/05/26 04:00:53;;;;;;;4.88;2.05;;;;;;;;;;5064355;28;20151;-63
2022/05/26 04:03:20;;;;;;;6.03;2.00;;;;;;;;;;5065435;28;20084;-63
2022/05/26 04:05:46;;;;;;;5.07;2.05;;;;;;;;;;5066167;28;21128;-63
2022/05/26 04:08:12;;;;;;;5.28;1.90;;;;;;;;;;5059214;28;20051;-63
2022/05/26 04:10:38;;;;;;;5.18;2.38;;;;;;;;;;5052073;28;20024;-63
2022/05/26 04:13:05;;;;;;;3.88;1.85;;;;;;;;;;5061721;28;20491;-63
2022/05/26 04:15:31;;;;;;;5.43;2.25;;;;;;;;;;5066397;28;20123;-63
2022/05/26 04:17:57;;;;;;;3.85;1.80;;;;;;;;;;5062219;28;20043;-63
2022/05/26 04:20:24;;;;;;;6.05;2.17;;;;;;;;;;5065975;28;20098;-63
2022/05/26 04:22:50;;;;;;;4.10;1.90;;;;;;;;;;5068302;28;20024;-63
2022/05/26 04:25:18;;;;;;;5.38;2.03;;;;;;;;;;5070679;28;20039;-63
2022/05/26 04:27:44;;;;;;;5.72;1.95;;;;;;;;;;5063872;28;20048;-63
2022/05/26 04:30:11;;;;;;;6.88;1.85;;;;;;;;;;5064895;28;20052;-63
2022/05/26 04:32:39;;;;;;;3.95;1.67;;;;;;;;;;5066350;28;20119;-63
2022/05/26 04:35:05;;;;;;;3.30;1.85;;;;;;;;;;5068291;28;20453;-63
2022/05/26 04:37:31;;;;;;;3.83;1.70;;;;;;;;;;5059103;28;20144;-63
2022/05/26 04:39:58;;;;;;;5.00;2.10;;;;;;;;;;5068140;28;20074;-63
2022/05/26 04:42:25;;;;;;;4.50;1.88;;;;;;;;;;5064866;28;20025;-63
2022/05/26 04:44:51;;;;;;;3.92;1.70;;;;;;;;;;5054740;28;20029;-63
2022/05/26 04:47:20;;;;;;;6.40;1.50;;;;;;;;;;5053389;28;20507;-63
2022/05/26 04:49:47;;;;;;;4.00;1.60;;;;;;;;;;5063326;28;20481;-63
2022/05/26 04:52:15;;;;;;;6.30;2.10;;;;;;;;;;5067033;28;20090;-63
2022/05/26 04:54:42;;;;;;;3.53;1.70;;;;;;;;;;5049860;28;20479;-63
2022/05/26 04:57:08;;;;;;;5.70;2.13;;;;;;;;;;5063174;28;20105;-63
2022/05/26 04:59:34;;;;;;;4.88;1.80;;;;;;;;;;5050094;28;20107;-63
2022/05/26 05:02:01;;;;;;;5.45;2.00;;;;;;;;;;5057476;28;20032;-63
2022/05/26 05:04:27;;;;;;;4.97;2.08;;;;;;;;;;5059469;28;20029;-63
2022/05/26 05:06:54;;;;;;;6.43;2.28;;;;;;;;;;5047185;28;20032;-63
2022/05/26 05:09:21;;;;;;;5.45;1.58;;;;;;;;;;5059544;28;20021;-63
2022/05/26 05:11:47;;;;;;;4.97;1.65;;;;;;;;;;5050462;28;20029;-63
2022/05/26 05:14:14;;;;;;;5.85;2.50;;;;;;;;;;5055162;28;20108;-63
2022/05/26 05:16:44;;;;;;;7.20;1.88;;;;;;;;;;5068015;28;20139;-63
2022/05/26 05:19:14;;;;;;;3.95;1.52;;;;;;;;;;5060766;28;20104;-63
2022/05/26 05:21:40;;;;;;;;;;;;;;;;;;5068306;28;20136;-64
2022/05/26 05:24:09;;;;;;;4.18;1.83;;;;;;;;;;5057169;28;20808;-63
2022/05/26 05:26:37;;;;;;;11.73;2.72;;;;;;;;;;5054007;28;20036;-63
2022/05/26 05:29:07;;;;;;;12.75;3.03;;;;;;;;;;5067773;28;20035;-63
2022/05/26 05:31:36;;;;;;;16.58;4.20;;;;;;;;;;5052588;28;20443;-64
2022/05/26 05:34:04;;;;;;;18.33;4.95;;;;;;;;;;5062345;28;20028;-63
2022/05/26 05:36:33;;;;;;;20.52;4.63;;;;;;;;;;5063124;28;20441;-63
2022/05/26 05:38:59;;;;;;;26.60;5.85;;;;;;;;;;5063803;28;20437;-63
2022/05/26 05:41:26;;;;;;;24.00;6.43;;;;;;;;;;5055689;28;20021;-63
2022/05/26 05:43:52;;;;;;;26.52;6.07;;;;;;;;;;5053227;28;20021;-63
2022/05/26 05:46:19;;;;;;;24.95;5.90;;;;;;;;;;5060698;28;20033;-64
2022/05/26 05:48:46;;;;;;;21.10;6.00;;;;;;;;;;5065899;28;20399;-63
2022/05/26 05:51:12;;;;;;;25.95;6.43;;;;;;;;;;5060281;28;20475;-63
2022/05/26 05:53:38;;;;;;;24.55;8.18;;;;;;;;;;5061339;28;20099;-64
2022/05/26 05:56:04;;;;;;;26.40;7.05;;;;;;;;;;5052161;28;20029;-64
2022/05/26 05:58:30;;;;;;;26.73;6.60;;;;;;;;;;5055340;28;20562;-64
2022/05/26 06:00:56;;;;;;;26.33;6.38;;;;;;;;;;5064179;28;20052;-63
2022/05/26 06:03:23;;;;;;;29.60;7.53;;;;;;;;;;5048943;28;20104;-63
2022/05/26 06:05:49;;;;;;;24.15;7.72;;;;;;;;;;5061501;28;20116;-63
2022/05/26 06:08:15;;;;;;;23.45;5.82;;;;;;;;;;5068061;28;20494;-64
2022/05/26 06:10:41;;;;;;;22.20;5.55;;;;;;;;;;5064239;28;20027;-64
2022/05/26 06:13:08;;;;;;;22.55;5.90;;;;;;;;;;5055855;28;20064;-63
2022/05/26 06:15:34;;;;;;;28.05;6.38;;;;;;;;;;5059533;28;20059;-63
2022/05/26 06:18:00;;;;;;;20.27;6.15;;;;;;;;;;5064771;28;20028;-63
2022/05/26 06:20:27;;;;;;;24.25;5.90;;;;;;;;;;5059908;28;20033;-63
2022/05/26 06:22:53;;;;;;;27.77;7.05;;;;;;;;;;5059119;28;20101;-63
2022/05/26 06:25:20;;;;;;;26.23;6.32;;;;;;;;;;5061168;28;20115;-64
2022/05/26 06:30:33;;;;;;;20.05;5.90;;;;;;;;;;5059096;28;20035;-63
2022/05/26 06:38:32;;;;;;;41.08;6.70;;;;;;;;;;5059550;28;20044;-63
2022/05/26 06:42:05;;;;;;;54.47;10.13;;;;;;;;;;5058908;28;20120;-63
2022/05/26 06:43:44;;;;;;;40.90;7.35;;;;;;;;;;5059305;28;20025;-63
2022/05/26 06:46:10;;;;;;;37.28;7.50;;;;;;;;;;5058178;28;20044;-63
2022/05/26 06:48:36;;;;;;;37.20;7.47;;;;;;;;;;5048196;28;20041;-63
2022/05/26 06:51:05;;;;;;;42.58;7.80;;;;;;;;;;5050536;28;20434;-63
2022/05/26 06:53:31;;;;;;;36.58;7.03;;;;;;;;;;5057730;28;20056;-63
2022/05/26 06:55:57;;;;;;;45.83;8.57;;;;;;;;;;5055914;28;20055;-63
2022/05/26 06:58:23;;;;;;;52.70;8.40;;;;;;;;;;5060466;28;20115;-62
2022/05/26 07:00:49;;;;;;;47.13;9.43;;;;;;;;;;5058083;28;20032;-62
2022/05/26 07:03:15;;;;;;;42.70;7.30;;;;;;;;;;5061291;28;20024;-62
2022/05/26 07:05:41;;;;;;;49.38;7.90;;;;;;;;;;5057436;28;20021;-62
2022/05/26 07:08:07;;;;;;;43.53;8.35;;;;;;;;;;5061139;28;20047;-63
2022/05/26 07:10:34;;;;;;;47.55;7.57;;;;;;;;;;5058322;28;20099;-62
2022/05/26 07:13:00;;;;;;;37.58;7.45;;;;;;;;;;5062753;28;20029;-62
2022/05/26 07:15:26;;;;;;;48.30;7.40;;;;;;;;;;5063592;28;20021;-62
2022/05/26 07:17:52;;;;;;;40.90;7.40;;;;;;;;;;5066570;28;20098;-63
2022/05/26 07:20:19;;;;;;;33.53;6.70;;;;;;;;;;5067562;28;20090;-63
2022/05/26 07:22:45;;;;;;;40.38;6.25;;;;;;;;;;5067686;28;20031;-62
2022/05/26 07:25:11;;;;;;;47.47;7.18;;;;;;;;;;5056195;28;20100;-62
2022/05/26 07:27:37;;;;;;;33.22;6.03;;;;;;;;;;5056832;28;20033;-62
2022/05/26 07:30:04;;;;;;;42.67;6.45;;;;;;;;;;5058888;28;20033;-62
2022/05/26 07:32:30;;;;;;;29.73;5.05;;;;;;;;;;5052201;28;20466;-62
2022/05/26 07:34:56;;;;;;;20.38;3.85;;;;;;;;;;5061849;28;20052;-62
2022/05/26 07:42:52;;;;;;;23.77;3.83;;;;;;;;;;5066708;28;20406;-62
2022/05/26 07:45:19;;;;;;;19.92;3.70;;;;;;;;;;5067398;28;20521;-62
2022/05/26 07:47:45;;;;;;;24.48;4.18;;;;;;;;;;5066011;28;20079;-62
2022/05/26 07:50:19;;;;;;;21.50;3.83;;;;;;;;;;5067762;28;20056;-61
2022/05/26 07:52:46;;;;;;;16.90;4.68;;;;;;;;;;5067768;28;20041;-62
2022/05/26 07:55:12;;;;;;;22.45;5.15;;;;;;;;;;5067453;28;20037;-62
2022/05/26 07:57:38;;;;;;;27.63;4.50;;;;;;;;;;5067125;28;20032;-63
2022/05/26 08:00:04;;;;;;;15.90;4.10;;;;;;;;;;5066345;28;20444;-63
2022/05/26 08:02:30;;;;;;;33.22;3.95;;;;;;;;;;5065848;28;20067;-64
2022/05/26 08:04:56;;;;;;;14.20;3.63;;;;;;;;;;5066669;28;20103;-63
2022/05/26 08:07:22;;;;;;;12.63;3.55;;;;;;;;;;5067959;28;20040;-63
2022/05/26 08:09:48;;;;;;;12.95;2.70;;;;;;;;;;5065738;28;20028;-64
2022/05/26 08:12:15;;;;;;;16.50;2.80;;;;;;;;;;5066995;28;20046;-63
2022/05/26 08:14:41;;;;;;;13.38;2.85;;;;;;;;;;5066813;28;20170;-61
2022/05/26 08:17:07;;;;;;;15.90;2.40;;;;;;;;;;5066807;28;20681;-62
2022/05/26 08:19:34;;;;;;;29.95;3.97;;;;;;;;;;5066013;28;20067;-64
2022/05/26 08:22:00;;;;;;;19.00;2.72;;;;;;;;;;5065290;28;20100;-64
2022/05/26 08:24:27;;;;;;;8.88;2.50;;;;;;;;;;5066679;28;20016;-64
2022/05/26 08:26:53;;;;;;;11.63;3.03;;;;;;;;;;5066453;28;20964;-64
2022/05/26 08:29:19;;;;;;;14.85;2.83;;;;;;;;;;5066586;28;20538;-64
2022/05/26 08:31:45;;;;;;;15.90;2.40;;;;;;;;;;5066378;28;20024;-64
2022/05/26 08:34:11;;;;;;;10.15;2.55;;;;;;;;;;5065315;28;20061;-66
2022/05/26 08:36:37;;;;;;;10.88;2.17;;;;;;;;;;5065774;28;20068;-65
2022/05/26 08:39:04;;;;;;;16.33;2.30;;;;;;;;;;5064629;28;20103;-65
2022/05/26 08:41:46;;;;;;;13.55;2.50;;;;;;;;;;5063775;28;20024;-65
2022/05/26 08:44:15;;;;;;;13.98;2.55;;;;;;;;;;5064575;28;20501;-65
2022/05/26 08:47:03;;;;;;;8.55;2.00;;;;;;;;;;5064366;28;20029;-65
2022/05/26 08:49:39;;;;;;;13.60;2.10;;;;;;;;;;5065416;28;20427;-65
2022/05/26 08:52:09;;;;;;;10.90;2.10;;;;;;;;;;5065601;28;20062;-65
2022/05/26 08:54:38;;;;;;;12.70;2.42;;;;;;;;;;5047410;28;20032;-65
2022/05/26 08:57:07;;;;;;;7.90;1.87;;;;;;;;;;5065415;28;20108;-65
2022/05/26 08:59:37;;;;;;;12.45;2.13;;;;;;;;;;5066292;28;20057;-65
2022/05/26 09:02:04;;;;;;;12.13;3.15;;;;;;;;;;5064044;28;20028;-65
2022/05/26 09:04:30;;;;;;;11.35;2.75;;;;;;;;;;5065847;28;20036;-64
2022/05/26 09:15:19;;;;;;;16.13;2.55;;;;;;;;;;5065834;28;20067;-65
2022/05/26 09:17:45;;;;;;;11.45;2.28;;;;;;;;;;5064391;28;20123;-62
2022/05/26 09:20:28;;;;;;;11.25;2.55;;;;;;;;;;5065687;28;20103;-62
2022/05/26 09:22:54;;;;;;;7.20;1.80;;;;;;;;;;5064811;28;20108;-62
2022/05/26 09:25:38;;;;;;;11.88;2.10;;;;;;;;;;5064000;28;20120;-63
2022/05/26 09:28:05;;;;;;;8.75;2.05;;;;;;;;;;5064659;28;20494;-63
2022/05/26 09:30:33;;;;;;;10.95;1.95;;;;;;;;;;5064741;28;20052;-63
2022/05/26 09:33:00;;;;;;;12.25;2.60;;;;;;;;;;5054966;28;20513;-63
2022/05/26 09:35:26;;;;;;;9.82;2.60;;;;;;;;;;5063940;28;20062;-63
2022/05/26 09:37:54;;;;;;;12.15;2.47;;;;;;;;;;5063239;28;20036;-63
2022/05/26 09:40:20;;;;;;;6.72;1.85;;;;;;;;;;5064305;28;20029;-63
2022/05/26 09:42:48;;;;;;;4.97;1.75;;;;;;;;;;5064222;28;20056;-63
2022/05/26 09:45:19;;;;;;;7.55;2.42;;;;;;;;;;5064679;28;20056;-63
2022/05/26 09:47:45;;;;;;;15.68;2.67;;;;;;;;;;5063989;28;20036;-63
2022/05/26 09:50:15;;;;;;;11.40;1.98;;;;;;;;;;5064152;28;20448;-63
2022/05/26 09:52:45;;;;;;;11.57;2.75;;;;;;;;;;5065164;28;20106;-62
2022/05/26 09:55:14;;;;;;;8.82;2.15;;;;;;;;;;5064171;28;20032;-64
2022/05/26 09:57:41;;;;;;;12.52;2.40;;;;;;;;;;5062651;28;20048;-64
2022/05/26 10:00:18;;;;;;;9.10;1.77;;;;;;;;;;5063559;28;20029;-65
2022/05/26 10:02:46;;;;;;;9.73;1.80;;;;;;;;;;5063425;28;20220;-65
2022/05/26 10:05:16;;;;;;;8.35;2.20;;;;;;;;;;5064211;28;20261;-66
2022/05/26 10:08:05;;;;;;;8.07;1.90;;;;;;;;;;5064895;28;20525;-64
2022/05/26 10:10:34;;;;;;;8.37;2.23;;;;;;;;;;5035383;28;20029;-65
2022/05/26 10:13:29;;;;;;;10.82;1.75;;;;;;;;;;5064291;28;20139;-66
2022/05/26 10:16:01;;;;;;;7.68;1.48;;;;;;;;;;5050765;28;20131;-66
2022/05/26 10:18:40;;;;;;;8.25;1.88;;;;;;;;;;5065146;28;20111;-65
2022/05/26 10:21:11;;;;;;;5.63;1.65;;;;;;;;;;5063911;28;20494;-66
2022/05/26 10:23:46;;;;;;;5.05;1.52;;;;;;;;;;5064504;28;20024;-66
2022/05/26 10:26:31;;;;;;;8.68;2.05;;;;;;;;;;5064691;28;20112;-66
2022/05/26 10:28:57;;;;;;;6.75;1.63;;;;;;;;;;5064694;28;20159;-66
2022/05/26 10:31:35;;;;;;;8.02;1.63;;;;;;;;;;5064112;28;22348;-65
2022/05/26 10:34:01;;;;;;;9.27;1.75;;;;;;;;;;5065091;28;20107;-65
2022/05/26 10:36:46;;;;;;;5.50;1.50;;;;;;;;;;5064366;28;20481;-65
2022/05/26 10:39:24;;;;;;;6.55;1.88;;;;;;;;;;5063442;28;20025;-65
2022/05/26 10:41:52;;;;;;;10.70;2.20;;;;;;;;;;5062238;28;20064;-65
2022/05/26 10:44:21;;;;;;;11.13;1.90;;;;;;;;;;5065357;28;20162;-65
2022/05/26 10:47:07;;;;;;;8.13;1.85;;;;;;;;;;5067425;28;20550;-65
2022/05/26 10:49:43;;;;;;;16.20;2.20;;;;;;;;;;5067989;28;20074;-66
2022/05/26 10:52:13;;;;;;;10.63;1.88;;;;;;;;;;5067736;28;20127;-66
2022/05/26 10:54:39;;;;;;;;;;;;;;;;;;5068095;28;20021;-65
2022/05/26 10:57:07;;;;;;;10.15;2.20;;;;;;;;;;5067516;28;19958;-65
2022/05/26 10:59:59;;;;;;;11.07;1.70;;;;;;;;;;5066891;28;20111;-66
2022/05/26 11:02:25;;;;;;;10.45;1.70;;;;;;;;;;5062886;28;20123;-66
2022/05/26 11:05:01;;;;;;;16.48;1.80;;;;;;;;;;5067963;28;20082;-66
2022/05/26 11:07:33;;;;;;;13.27;2.17;;;;;;;;;;5067887;28;20390;-66
2022/05/26 11:10:05;;;;;;;10.50;2.28;;;;;;;;;;5067990;28;20035;-66
2022/05/26 11:12:54;;;;;;;12.32;2.05;;;;;;;;;;5067353;28;20048;-63
2022/05/26 11:18:19;;;;;;;13.70;2.58;;;;;;;;;;5066233;28;20036;-67
2022/05/26 11:20:53;;;;;;;9.57;2.22;;;;;;;;;;5066069;28;20036;-66
2022/05/26 11:23:20;;;;;;;8.30;2.30;;;;;;;;;;5065858;28;20055;-65
2022/05/26 11:25:49;;;;;;;7.43;1.60;;;;;;;;;;5066241;28;20115;-64
2022/05/26 11:28:26;;;;;;;11.55;2.03;;;;;;;;;;5065512;28;20039;-66
2022/05/26 11:36:44;;;;;;;11.25;2.33;;;;;;;;;;5065975;28;20142;-66
2022/05/26 11:39:17;;;;;;;12.02;1.70;;;;;;;;;;5067394;28;20108;-66
2022/05/26 11:41:49;;;;;;;15.77;1.98;;;;;;;;;;5067336;28;20499;-66
2022/05/26 11:44:30;;;;;;;10.23;1.60;;;;;;;;;;5066698;28;20640;-66
2022/05/26 11:47:11;;;;;;;12.65;2.35;;;;;;;;;;5066028;28;20037;-66
2022/05/26 11:49:43;;;;;;;14.55;2.55;;;;;;;;;;5065947;28;20102;-66
2022/05/26 11:52:25;;;;;;;9.98;1.90;;;;;;;;;;5067030;28;20025;-66
2022/05/26 11:54:55;;;;;;;6.82;1.20;;;;;;;;;;5066459;28;20036;-66
2022/05/26 11:57:44;;;;;;;8.48;2.00;;;;;;;;;;5066425;28;20039;-66
2022/05/26 12:00:16;;;;;;;10.57;1.77;;;;;;;;;;5056839;28;20083;-66
2022/05/26 12:02:47;;;;;;;5.93;1.70;;;;;;;;;;5066773;28;20029;-66
2022/05/26 12:05:31;;;;;;;7.70;1.40;;;;;;;;;;5066737;28;20033;-66
2022/05/26 12:07:59;;;;;;;6.38;1.52;;;;;;;;;;5064803;28;20064;-66
2022/05/26 12:10:27;;;;;;;7.43;1.50;;;;;;;;;;5066119;28;20504;-66
2022/05/26 12:13:12;;;;;;;8.38;2.25;;;;;;;;;;5065192;28;20421;-66
2022/05/26 12:15:58;;;;;;;7.18;1.75;;;;;;;;;;5066070;28;20082;-66
2022/05/26 12:18:36;;;;;;;9.43;1.45;;;;;;;;;;5066940;28;20103;-66
2022/05/26 12:21:16;;;;;;;7.13;1.30;;;;;;;;;;5048451;28;20090;-66
2022/05/26 12:23:42;;;;;;;5.95;1.02;;;;;;;;;;5065614;28;20112;-66
2022/05/26 12:26:25;;;;;;;6.13;1.45;;;;;;;;;;5065977;28;20018;-66
2022/05/26 12:28:51;;;;;;;6.18;1.30;;;;;;;;;;5064420;28;20098;-66
2022/05/26 12:31:18;;;;;;;5.63;1.33;;;;;;;;;;5068526;28;20032;-66
2022/05/26 12:34:02;;;;;;;6.07;1.15;;;;;;;;;;5063351;28;20077;-66
2022/05/26 12:36:33;;;;;;;6.10;1.35;;;;;;;;;;5048863;28;20053;-66
2022/05/26 12:39:02;;;;;;;8.45;1.70;;;;;;;;;;5061971;28;20389;-66
2022/05/26 12:41:28;;;;;;;4.30;1.40;;;;;;;;;;5070013;28;20074;-66
2022/05/26 12:44:13;;;;;;;4.13;0.93;;;;;;;;;;5058133;28;20071;-66
2022/05/26 12:46:50;;;;;;;4.93;1.10;;;;;;;;;;5050098;28;20021;-66
2022/05/26 12:49:18;;;;;;;9.68;1.50;;;;;;;;;;5063786;28;20028;-66
2022/05/26 12:51:45;;;;;;;5.47;1.20;;;;;;;;;;5050288;28;20029;-65
2022/05/26 12:54:18;;;;;;;11.95;1.52;;;;;;;;;;5061841;28;20549;-65
2022/05/26 12:56:55;;;;;;;9.00;1.27;;;;;;;;;;5067386;28;20107;-65
2022/05/26 12:59:23;;;;;;;6.30;1.40;;;;;;;;;;5064447;28;20402;-66
2022/05/26 13:01:50;;;;;;;9.43;1.38;;;;;;;;;;5050073;28;20139;-65
2022/05/26 13:04:19;;;;;;;8.25;1.17;;;;;;;;;;5067318;28;20105;-65
2022/05/26 13:06:48;;;;;;;7.93;1.67;;;;;;;;;;5069118;28;20111;-65
2022/05/26 13:09:25;;;;;;;7.25;1.38;;;;;;;;;;5063716;28;20441;-65
2022/05/26 13:11:54;;;;;;;8.95;1.27;;;;;;;;;;5069815;28;20028;-65
2022/05/26 13:14:32;;;;;;;7.40;1.50;;;;;;;;;;5062905;28;20036;-65
2022/05/26 13:17:03;;;;;;;8.82;1.60;;;;;;;;;;5064676;28;20085;-65
2022/05/26 13:19:29;;;;;;;8.98;1.77;;;;;;;;;;5061531;28;20061;-66
2022/05/26 13:21:56;;;;;;;6.22;1.23;;;;;;;;;;5049771;28;20614;-66
2022/05/26 13:24:23;;;;;;;8.13;1.30;;;;;;;;;;5054957;28;20044;-65
2022/05/26 13:26:52;;;;;;;9.23;1.48;;;;;;;;;;5061313;28;20024;-66
2022/05/26 13:29:19;;;;;;;8.40;2.30;;;;;;;;;;5066808;28;20021;-65
2022/05/26 13:34:33;;;;;;;7.55;1.60;;;;;;;;;;5066318;28;20497;-65
2022/05/26 13:37:04;;;;;;;11.57;2.30;;;;;;;;;;5059309;28;20487;-64
2022/05/26 13:39:30;;;;;;;9.70;2.47;;;;;;;;;;5064736;28;20132;-65
2022/05/26 13:41:56;;;;;;;7.10;2.13;;;;;;;;;;5068351;28;20154;-65
2022/05/26 13:44:39;;;;;;;7.63;2.75;;;;;;;;;;5068093;28;20029;-65
2022/05/26 13:47:08;;;;;;;8.95;2.22;;;;;;;;;;5068069;28;20173;-65
2022/05/26 13:49:39;;;;;;;9.00;2.60;;;;;;;;;;5067185;28;20643;-65
2022/05/26 13:52:17;;;;;;;10.07;2.70;;;;;;;;;;5057974;28;20021;-65
2022/05/26 13:54:55;;;;;;;12.02;2.90;;;;;;;;;;5067659;28;20059;-65
2022/05/26 13:57:32;;;;;;;12.02;2.88;;;;;;;;;;5058026;28;20028;-66
2022/05/26 14:00:00;;;;;;;12.52;2.90;;;;;;;;;;5058406;28;20032;-66
2022/05/26 14:02:31;;;;;;;11.50;2.80;;;;;;;;;;5067548;28;20028;-66
2022/05/26 14:04:57;;;;;;;10.30;3.40;;;;;;;;;;5068641;28;20039;-65
2022/05/26 14:07:25;;;;;;;6.85;2.78;;;;;;;;;;5060179;28;20033;-65
2022/05/26 14:10:01;;;;;;;11.93;3.60;;;;;;;;;;5048380;28;20053;-66
2022/05/26 14:12:28;;;;;;;8.82;3.42;;;;;;;;;;5052608;28;20562;-66
2022/05/26 14:14:55;;;;;;;13.90;4.07;;;;;;;;;;5048554;28;20040;-65
2022/05/26 14:17:30;;;;;;;10.90;3.50;;;;;;;;;;5053528;28;20033;-65
2022/05/26 14:19:57;;;;;;;12.40;4.35;;;;;;;;;;5071924;28;20021;-65
2022/05/26 14:22:24;;;;;;;14.65;3.50;;;;;;;;;;5059843;28;20071;-65
2022/05/26 14:24:53;;;;;;;7.53;3.30;;;;;;;;;;5073294;28;20025;-65
2022/05/26 14:27:27;;;;;;;9.75;3.65;;;;;;;;;;5061590;28;20045;-65
2022/05/26 14:30:03;;;;;;;8.07;3.10;;;;;;;;;;5072242;28;20548;-65
2022/05/26 14:32:31;;;;;;;10.43;3.53;;;;;;;;;;5060896;28;20033;-65
2022/05/26 14:34:58;;;;;;;8.27;3.80;;;;;;;;;;5071177;28;20127;-65
2022/05/26 14:37:25;;;;;;;9.82;3.15;;;;;;;;;;5063510;28;20036;-65
2022/05/26 14:39:52;;;;;;;10.65;3.42;;;;;;;;;;5069127;28;20024;-65
2022/05/26 14:42:29;;;;;;;9.35;3.20;;;;;;;;;;5068394;28;20029;-65
2022/05/26 14:44:56;;;;;;;12.70;4.30;;;;;;;;;;5071858;28;20039;-65
2022/05/26 14:47:22;;;;;;;12.43;3.80;;;;;;;;;;5065728;28;20085;-65
2022/05/26 14:49:48;;;;;;;9.88;3.22;;;;;;;;;;5059338;28;20116;-65
2022/05/26 14:52:15;;;;;;;8.02;3.13;;;;;;;;;;5056217;28;20024;-65
2022/05/26 14:57:26;;;;;;;8.98;3.17;;;;;;;;;;5067545;28;20040;-65
2022/05/26 14:59:52;;;;;;;12.52;3.00;;;;;;;;;;5065473;28;20032;-65
2022/05/26 15:02:18;;;;;;;7.82;3.20;;;;;;;;;;5070568;28;20189;-65
2022/05/26 15:04:45;;;;;;;8.48;3.17;;;;;;;;;;5060768;28;20467;-65
2022/05/26 15:07:12;;;;;;;8.35;2.63;;;;;;;;;;5070235;28;20040;-65
2022/05/26 15:09:41;;;;;;;10.63;3.58;;;;;;;;;;5062002;28;20025;-65
2022/05/26 15:12:08;;;;;;;7.80;2.88;;;;;;;;;;5051931;28;20025;-65
2022/05/26 15:14:37;;;;;;;10.07;3.03;;;;;;;;;;5055901;28;20127;-65
2022/05/26 15:17:06;;;;;;;11.57;3.13;;;;;;;;;;5072101;28;20131;-65
2022/05/26 15:19:52;;;;;;;9.35;2.45;;;;;;;;;;5064647;28;20029;-65
2022/05/26 15:22:19;;;;;;;14.95;3.45;;;;;;;;;;5070139;28;20028;-65
2022/05/26 15:24:46;;;;;;;11.50;2.80;;;;;;;;;;5057634;28;20032;-65
2022/05/26 15:27:13;;;;;;;8.35;2.80;;;;;;;;;;5070638;28;20479;-65
2022/05/26 15:29:39;;;;;;;8.07;2.47;;;;;;;;;;5062473;28;20020;-65
2022/05/26 15:32:07;;;;;;;7.60;2.50;;;;;;;;;;5070011;28;20474;-65
2022/05/26 15:34:33;;;;;;;9.70;3.08;;;;;;;;;;5067129;28;20098;-65
2022/05/26 15:37:02;;;;;;;10.55;2.72;;;;;;;;;;5052827;28;20112;-65